7XS4 weather

Public forecast

Using degrees Fahrenheit for public forecast. Weather courtesy of forecast.io.

Closest aviation weather report (METAR) to Durwood Greene Construction Company Heliport

Closest report is Sugar Land Regional Airport, 5.2 nm (9.7 km) W. Retrieved 2020/08/14 01:53 UTC (36 minutes ago):

KSGR 140153Z 19009KT 10SM CLR 30/23 A2991 RMK AO2 SLP129 T03000228

Closest aviation forecast (TAF) to Durwood Greene Construction Company Heliport

Closest forecast is Sugar Land Regional Airport, 5.2 nm (9.7 km) W. Retrieved 2020-08-14 00:42 UTC (2 hours ago):

TAF KSGR 132340Z 1400/1424 17007KT P6SM FEW050 FM140500 20004KT P6SM SKC FM141400 23009KT P6SM FEW025 FM141800 21008KT P6SM SCT050 FM142300 17008KT P6SM FEW050